Time;durP1;ratioP1;P1;durP2;ratioP2;P2;SDS_P1;SDS_P2;PMS_P1;PMS_P2;Temp;Humidity;BMP_temperature;BMP_pressure;BME280_temperature;BME280_humidity;BME280_pressure;Samples;Min_cycle;Max_cycle;Signal;HPM_P1;HPM_P2
2020/12/10 00:00:11;;;;;;;117.10;38.90;;;8.00;60.20;;;;;;5021207;28;20463;-64
2020/12/10 00:02:37;;;;;;;109.28;37.75;;;7.90;60.00;;;;;;5010714;28;20815;-65
2020/12/10 00:05:04;;;;;;;105.65;37.53;;;7.90;60.00;;;;;;5009818;28;20044;-65
2020/12/10 00:07:29;;;;;;;108.60;38.58;;;7.90;60.00;;;;;;5016666;28;20598;-65
2020/12/10 00:09:55;;;;;;;110.95;39.75;;;7.90;60.00;;;;;;5005803;28;22983;-65
2020/12/10 00:12:21;;;;;;;106.63;38.95;;;7.90;60.00;;;;;;5012586;28;20033;-65
2020/12/10 00:14:53;;;;;;;109.97;36.83;;;7.90;60.10;;;;;;5011704;28;20037;-65
2020/12/10 00:17:26;;;;;;;109.63;39.15;;;7.90;60.10;;;;;;5007744;28;20515;-65
2020/12/10 00:19:51;;;;;;;117.00;39.00;;;7.90;60.10;;;;;;5008443;28;20041;-65
2020/12/10 00:22:17;;;;;;;112.13;39.30;;;7.90;60.20;;;;;;5014438;28;20142;-65
2020/12/10 00:24:43;;;;;;;105.80;36.97;;;7.90;60.20;;;;;;5000826;28;20044;-64
2020/12/10 00:27:09;;;;;;;113.72;38.50;;;7.90;60.30;;;;;;5014199;28;20601;-65
2020/12/10 00:29:34;;;;;;;115.97;39.55;;;7.90;60.20;;;;;;5021700;28;20045;-65
2020/12/10 00:32:00;;;;;;;122.75;40.75;;;7.90;60.20;;;;;;5017490;28;20041;-64
2020/12/10 00:34:25;;;;;;;114.35;39.50;;;7.90;60.00;;;;;;5018245;28;20045;-64
2020/12/10 00:36:51;;;;;;;116.53;39.47;;;7.90;60.10;;;;;;5020612;28;20425;-65
2020/12/10 00:39:17;;;;;;;114.75;38.60;;;7.90;60.10;;;;;;5018823;28;20037;-65
2020/12/10 00:41:42;;;;;;;113.00;38.97;;;7.90;60.20;;;;;;5021531;28;20032;-65
2020/12/10 00:44:08;;;;;;;107.20;37.45;;;7.90;60.20;;;;;;5022215;28;21853;-65
2020/12/10 00:46:33;;;;;;;114.82;38.70;;;7.80;60.20;;;;;;5020482;28;20033;-65
2020/12/10 00:48:59;;;;;;;109.75;39.42;;;7.80;60.20;;;;;;5005255;28;20128;-65
2020/12/10 00:51:25;;;;;;;111.70;39.65;;;7.80;60.20;;;;;;5026033;28;20099;-65
2020/12/10 00:53:50;;;;;;;116.22;38.47;;;7.80;60.30;;;;;;5021868;28;20049;-65
2020/12/10 00:56:16;;;;;;;111.88;37.28;;;7.80;60.30;;;;;;5013088;28;20098;-65
2020/12/10 00:58:44;;;;;;;111.90;39.90;;;7.80;60.40;;;;;;5010897;28;20041;-65
2020/12/10 01:01:10;;;;;;;112.28;38.30;;;7.80;60.20;;;;;;5009814;28;20204;-65
2020/12/10 01:03:36;;;;;;;111.15;37.38;;;7.80;60.30;;;;;;5018086;28;20476;-65
2020/12/10 01:06:01;;;;;;;109.88;37.35;;;7.90;60.30;;;;;;5014744;28;21088;-65
2020/12/10 01:08:27;;;;;;;119.53;40.03;;;7.90;60.20;;;;;;5001366;28;20044;-65
2020/12/10 01:10:52;;;;;;;109.57;37.45;;;7.90;60.30;;;;;;5018944;28;20063;-65
2020/12/10 01:13:18;;;;;;;109.15;37.92;;;7.90;60.20;;;;;;5017894;28;20049;-64
2020/12/10 01:15:43;;;;;;;116.55;39.20;;;7.90;60.30;;;;;;5018353;28;20397;-65
2020/12/10 01:18:09;;;;;;;105.90;36.60;;;7.80;60.30;;;;;;5003523;28;21062;-64
2020/12/10 01:20:35;;;;;;;115.75;38.90;;;7.90;60.30;;;;;;5017515;28;20047;-65
2020/12/10 01:23:00;;;;;;;111.63;38.28;;;7.80;60.20;;;;;;5027463;28;20043;-65
2020/12/10 01:25:26;;;;;;;106.57;37.05;;;7.80;60.20;;;;;;5026268;28;20705;-65
2020/12/10 01:27:53;;;;;;;105.82;35.83;;;7.80;60.30;;;;;;5016855;28;20036;-64
2020/12/10 01:30:18;;;;;;;102.88;37.05;;;7.80;60.30;;;;;;5015309;28;20068;-65
2020/12/10 01:32:44;;;;;;;100.47;36.08;;;7.80;60.20;;;;;;5017902;28;22293;-65
2020/12/10 01:35:10;;;;;;;95.72;34.67;;;7.80;60.20;;;;;;5019579;28;20128;-65
2020/12/10 01:37:36;;;;;;;92.38;33.97;;;7.80;60.20;;;;;;5021726;28;20045;-65
2020/12/10 01:40:03;;;;;;;90.88;34.45;;;7.80;60.20;;;;;;5021691;28;20481;-65
2020/12/10 01:42:34;;;;;;;103.03;34.97;;;7.80;60.30;;;;;;5005035;28;20041;-65
2020/12/10 01:45:00;;;;;;;104.68;35.72;;;7.80;60.30;;;;;;5025188;28;20226;-65
2020/12/10 01:47:29;;;;;;;97.32;34.00;;;7.80;60.30;;;;;;5015837;28;20041;-65
2020/12/10 01:49:55;;;;;;;91.07;33.70;;;7.80;60.30;;;;;;5007426;28;20082;-65
2020/12/10 01:52:20;;;;;;;89.43;33.67;;;7.80;60.20;;;;;;5023911;28;20049;-65
2020/12/10 01:54:46;;;;;;;102.40;34.80;;;7.80;60.30;;;;;;5027918;28;20037;-65
2020/12/10 01:57:12;;;;;;;107.65;35.13;;;7.70;60.30;;;;;;5028022;28;20788;-64
2020/12/10 01:59:37;;;;;;;95.68;34.35;;;7.80;60.30;;;;;;5026945;28;20095;-65
2020/12/10 02:02:03;;;;;;;96.72;34.42;;;7.80;60.30;;;;;;5023773;28;20036;-65
2020/12/10 02:04:36;;;;;;;98.72;34.33;;;7.70;60.20;;;;;;5033060;28;20663;-65
2020/12/10 02:07:03;;;;;;;91.18;34.72;;;7.80;60.30;;;;;;5029883;28;20038;-65
2020/12/10 02:09:29;;;;;;;97.85;36.22;;;7.80;60.20;;;;;;5028375;28;20037;-65
2020/12/10 02:11:55;;;;;;;97.78;35.97;;;7.80;60.20;;;;;;5023952;28;20080;-65
2020/12/10 02:14:21;;;;;;;97.10;36.67;;;7.80;60.30;;;;;;5028186;28;20048;-65
2020/12/10 02:16:52;;;;;;;97.40;35.95;;;7.80;60.20;;;;;;5022853;28;20901;-65
2020/12/10 02:19:18;;;;;;;94.40;36.28;;;7.80;60.20;;;;;;5027575;28;20072;-65
2020/12/10 02:21:43;;;;;;;94.25;35.65;;;7.80;60.20;;;;;;5023850;28;20128;-65
2020/12/10 02:24:12;;;;;;;101.10;37.22;;;7.80;60.20;;;;;;5028409;28;20045;-65
2020/12/10 02:26:37;;;;;;;103.00;35.97;;;7.80;60.10;;;;;;5024459;28;20048;-65
2020/12/10 02:29:03;;;;;;;104.93;36.47;;;7.80;60.20;;;;;;5009870;28;20107;-65
2020/12/10 02:31:30;;;;;;;99.18;34.88;;;7.80;60.30;;;;;;5029015;28;20045;-65
2020/12/10 02:34:05;;;;;;;101.95;35.10;;;7.80;60.80;;;;;;5030055;28;20046;-65
2020/12/10 02:36:32;;;;;;;98.15;35.78;;;7.80;60.20;;;;;;5033346;28;20055;-65
2020/12/10 02:38:58;;;;;;;104.05;36.08;;;7.80;60.10;;;;;;5028570;28;20580;-65
2020/12/10 02:41:23;;;;;;;99.45;35.63;;;7.80;60.20;;;;;;5028633;28;20052;-65
2020/12/10 02:43:49;;;;;;;103.70;36.22;;;7.80;60.10;;;;;;5028367;28;20473;-65
2020/12/10 02:46:15;;;;;;;104.47;36.65;;;7.90;60.10;;;;;;5029150;28;20072;-62
2020/12/10 02:48:41;;;;;;;103.50;36.92;;;7.90;60.10;;;;;;5011659;28;20121;-62
2020/12/10 02:51:07;;;;;;;108.28;36.10;;;7.90;60.00;;;;;;5026392;28;20171;-63
2020/12/10 02:53:34;;;;;;;103.63;38.17;;;7.90;60.00;;;;;;5024477;28;20056;-64
2020/12/10 02:56:00;;;;;;;103.43;37.58;;;7.90;59.90;;;;;;5024912;28;20451;-65
2020/12/10 02:58:26;;;;;;;105.18;36.17;;;7.80;59.80;;;;;;5026113;28;20038;-65
2020/12/10 03:00:51;;;;;;;101.88;36.70;;;7.80;59.90;;;;;;5028510;28;20041;-65
2020/12/10 03:03:18;;;;;;;110.63;36.97;;;7.80;60.00;;;;;;5024438;28;20036;-65
2020/12/10 03:05:44;;;;;;;114.03;38.72;;;7.80;60.00;;;;;;5024919;28;20051;-65
2020/12/10 03:08:10;;;;;;;109.75;38.70;;;7.80;60.00;;;;;;5019120;23;20034;-65
2020/12/10 03:10:36;;;;;;;109.97;39.20;;;7.80;60.00;;;;;;5014858;28;20036;-65
2020/12/10 03:13:02;;;;;;;102.72;36.60;;;7.80;60.00;;;;;;5005920;28;20042;-65
2020/12/10 03:15:28;;;;;;;112.85;38.97;;;7.80;60.00;;;;;;5005704;28;20041;-65
2020/12/10 03:17:54;;;;;;;111.50;38.47;;;7.80;60.00;;;;;;5013447;28;20677;-65
2020/12/10 03:20:19;;;;;;;116.68;38.65;;;7.80;60.00;;;;;;5004227;28;20529;-65
2020/12/10 03:22:45;;;;;;;116.90;39.58;;;7.80;60.00;;;;;;5010954;28;20041;-65
2020/12/10 03:25:10;;;;;;;107.80;36.35;;;7.80;60.00;;;;;;5028308;28;20037;-65
2020/12/10 03:27:36;;;;;;;113.60;40.33;;;7.80;60.00;;;;;;5027629;28;20061;-65
2020/12/10 03:30:03;;;;;;;110.53;37.45;;;7.80;60.00;;;;;;5023342;28;20512;-65
2020/12/10 03:32:29;;;;;;;118.95;39.90;;;7.80;60.00;;;;;;5008591;28;20049;-65
2020/12/10 03:34:55;;;;;;;110.85;37.83;;;7.70;60.00;;;;;;5012189;28;20396;-65
2020/12/10 03:37:20;;;;;;;118.75;38.97;;;7.70;60.00;;;;;;5024860;28;20049;-65
2020/12/10 03:39:46;;;;;;;116.13;38.53;;;7.70;60.00;;;;;;5020282;28;20501;-65
2020/12/10 03:42:12;;;;;;;114.93;37.78;;;7.70;60.00;;;;;;5008645;28;20038;-65
2020/12/10 03:44:37;;;;;;;119.35;39.75;;;7.70;60.00;;;;;;5005583;28;20037;-65
2020/12/10 03:47:03;;;;;;;111.90;38.35;;;7.80;60.10;;;;;;5011773;28;20478;-65
2020/12/10 03:49:29;;;;;;;118.40;38.22;;;7.80;60.00;;;;;;5009389;28;20543;-65
2020/12/10 03:51:54;;;;;;;118.38;40.55;;;7.80;60.00;;;;;;5013929;28;20040;-65
2020/12/10 03:54:20;;;;;;;121.68;40.00;;;7.80;60.00;;;;;;5002709;28;20363;-65
2020/12/10 03:56:46;;;;;;;113.97;38.50;;;7.80;60.00;;;;;;5008043;28;20037;-65
2020/12/10 03:59:11;;;;;;;119.97;40.00;;;7.80;60.00;;;;;;5003373;28;20069;-65
2020/12/10 04:01:37;;;;;;;109.15;37.20;;;7.80;60.00;;;;;;5027612;28;20072;-65
2020/12/10 04:04:03;;;;;;;110.18;38.45;;;7.80;60.00;;;;;;5001260;28;20041;-65
2020/12/10 04:06:29;;;;;;;118.57;38.38;;;7.80;60.00;;;;;;5006052;28;20053;-65
2020/12/10 04:08:55;;;;;;;119.53;39.15;;;7.80;60.00;;;;;;5005786;28;20049;-68
2020/12/10 04:11:21;;;;;;;114.95;39.78;;;7.80;60.00;;;;;;5014537;28;20037;-65
2020/12/10 04:13:46;;;;;;;116.25;39.00;;;7.80;60.00;;;;;;5012047;28;20045;-65
2020/12/10 04:16:12;;;;;;;117.15;40.38;;;7.80;60.00;;;;;;5006937;28;20048;-65
2020/12/10 04:18:42;;;;;;;115.93;39.80;;;7.80;60.00;;;;;;5014938;28;21068;-65
2020/12/10 04:21:09;;;;;;;114.40;37.47;;;7.90;60.00;;;;;;5011081;28;20433;-65
2020/12/10 04:23:35;;;;;;;106.05;38.60;;;7.90;60.00;;;;;;5014610;28;20414;-65
2020/12/10 04:26:01;;;;;;;113.22;37.95;;;7.90;60.00;;;;;;5015949;28;20088;-65
2020/12/10 04:28:27;;;;;;;113.32;39.25;;;7.90;60.00;;;;;;5030800;28;20992;-65
2020/12/10 04:30:53;;;;;;;119.35;39.67;;;7.90;59.90;;;;;;5023121;28;20171;-65
2020/12/10 04:33:19;;;;;;;110.63;38.67;;;7.90;60.00;;;;;;5026695;28;20041;-65
2020/12/10 04:35:44;;;;;;;108.10;36.53;;;7.90;60.00;;;;;;5030704;28;21556;-65
2020/12/10 04:38:10;;;;;;;116.88;38.63;;;7.90;59.90;;;;;;5025877;28;20612;-65
2020/12/10 04:40:37;;;;;;;113.00;38.92;;;7.90;59.90;;;;;;5022864;28;20048;-65
2020/12/10 04:43:11;;;;;;;112.00;38.70;;;7.90;59.90;;;;;;5010282;28;20065;-65
2020/12/10 04:45:37;;;;;;;128.02;39.38;;;7.90;60.00;;;;;;5003085;28;20510;-65
2020/12/10 04:48:03;;;;;;;119.55;38.03;;;7.90;60.00;;;;;;5023254;28;20060;-65
2020/12/10 04:50:35;;;;;;;116.70;39.35;;;7.80;60.00;;;;;;5000595;28;20782;-65
2020/12/10 04:53:00;;;;;;;111.85;39.00;;;7.80;60.00;;;;;;5006350;28;20049;-65
2020/12/10 04:55:26;;;;;;;112.70;38.33;;;7.80;60.20;;;;;;5001793;28;20047;-65
2020/12/10 04:57:54;;;;;;;120.20;39.30;;;7.80;60.20;;;;;;4998345;28;20494;-65
2020/12/10 05:00:21;;;;;;;127.18;40.13;;;7.80;60.30;;;;;;4996369;28;20063;-65
2020/12/10 05:02:47;;;;;;;119.20;40.08;;;7.80;61.00;;;;;;5004236;28;20022;-65
2020/12/10 05:05:30;;;;;;;114.47;38.78;;;7.80;60.30;;;;;;5012250;28;20144;-65
2020/12/10 05:07:59;;;;;;;122.30;40.47;;;7.80;60.20;;;;;;5010077;28;20349;-68
2020/12/10 05:10:25;;;;;;;114.22;40.30;;;7.80;60.20;;;;;;5007955;28;20059;-66
2020/12/10 05:13:00;;;;;;;122.97;41.33;;;7.80;60.10;;;;;;4998825;28;20676;-65
2020/12/10 05:15:33;;;;;;;113.82;39.85;;;7.80;60.20;;;;;;5003770;28;20094;-65
2020/12/10 05:18:09;;;;;;;113.13;39.03;;;7.80;60.20;;;;;;5010212;28;20668;-65
2020/12/10 05:20:38;;;;;;;108.70;39.28;;;7.80;60.20;;;;;;5017190;28;20040;-65
2020/12/10 05:23:07;;;;;;;112.32;39.83;;;7.80;60.20;;;;;;5009854;28;20578;-65
2020/12/10 05:25:51;;;;;;;117.60;39.22;;;7.80;60.20;;;;;;4996404;28;20038;-65
2020/12/10 05:28:18;;;;;;;116.00;39.75;;;7.70;60.10;;;;;;5002817;28;20053;-65
2020/12/10 05:30:45;;;;;;;109.07;39.25;;;7.70;60.10;;;;;;5004984;28;20043;-65
2020/12/10 05:33:14;;;;;;;110.85;38.25;;;7.80;60.20;;;;;;5005700;28;20137;-64
2020/12/10 05:35:40;;;;;;;116.53;39.20;;;7.80;60.20;;;;;;5010045;28;20037;-65
2020/12/10 05:38:11;;;;;;;114.95;38.88;;;7.80;60.20;;;;;;5000108;28;20056;-65
2020/12/10 05:40:38;;;;;;;113.93;40.33;;;7.70;60.10;;;;;;4998605;28;20049;-64
2020/12/10 05:43:05;;;;;;;111.28;39.80;;;7.70;60.20;;;;;;5004607;28;20099;-65
2020/12/10 05:45:36;;;;;;;118.63;40.00;;;7.70;61.00;;;;;;5009226;28;20040;-65
2020/12/10 05:48:02;;;;;;;115.07;38.13;;;7.70;60.30;;;;;;5017403;28;20124;-65
2020/12/10 05:50:29;;;;;;;109.50;40.20;;;7.70;60.30;;;;;;5016908;28;20047;-65
2020/12/10 05:53:04;;;;;;;118.57;39.22;;;7.70;60.40;;;;;;4998871;28;20119;-65
2020/12/10 05:55:31;;;;;;;116.15;38.75;;;7.70;60.40;;;;;;4997452;28;20033;-64
2020/12/10 05:57:58;;;;;;;122.80;40.55;;;7.70;60.40;;;;;;5000588;28;20536;-65
2020/12/10 06:00:24;;;;;;;113.80;38.92;;;7.60;60.40;;;;;;4998329;28;20041;-65
2020/12/10 06:02:55;;;;;;;113.32;39.17;;;7.60;60.40;;;;;;4997486;28;20084;-65
2020/12/10 06:05:22;;;;;;;112.68;38.83;;;7.60;60.40;;;;;;4997401;28;20041;-65
2020/12/10 06:08:05;;;;;;;130.82;40.28;;;7.60;60.40;;;;;;4998881;28;20049;-65
2020/12/10 06:10:38;;;;;;;111.65;39.83;;;7.60;60.50;;;;;;5000495;28;20041;-65
2020/12/10 06:13:05;;;;;;;118.72;39.85;;;7.60;60.60;;;;;;4999209;28;20160;-65
2020/12/10 06:15:32;;;;;;;120.80;38.67;;;7.60;60.60;;;;;;5008905;28;20037;-65
2020/12/10 06:18:12;;;;;;;121.32;39.88;;;7.60;60.60;;;;;;5006149;28;20459;-65
2020/12/10 06:20:43;;;;;;;115.63;39.05;;;7.60;60.60;;;;;;5006107;28;22496;-65
2020/12/10 06:23:25;;;;;;;108.05;39.75;;;7.50;60.60;;;;;;5005331;28;20041;-65
2020/12/10 06:25:51;;;;;;;111.90;37.60;;;7.50;60.70;;;;;;4999411;28;20095;-65
2020/12/10 06:28:19;;;;;;;111.10;38.00;;;7.50;60.70;;;;;;5002386;28;20037;-65
2020/12/10 06:31:09;;;;;;;119.80;38.42;;;7.50;60.70;;;;;;5014084;28;20041;-65
2020/12/10 06:33:38;;;;;;;121.35;38.65;;;7.50;60.80;;;;;;5015054;28;20041;-65
2020/12/10 06:36:21;;;;;;;112.50;38.05;;;7.50;60.80;;;;;;5030018;28;20468;-65
2020/12/10 06:38:47;;;;;;;121.50;38.50;;;7.50;60.90;;;;;;5023113;28;20048;-65
2020/12/10 06:41:13;;;;;;;116.57;39.45;;;7.50;61.00;;;;;;5006322;28;20364;-65
2020/12/10 06:43:39;;;;;;;125.53;40.30;;;7.50;61.00;;;;;;5013357;28;20094;-65
2020/12/10 06:46:06;;;;;;;118.32;37.42;;;7.50;61.10;;;;;;5013232;28;20394;-65
2020/12/10 06:48:46;;;;;;;116.97;36.95;;;7.50;61.00;;;;;;5012006;28;20120;-65
2020/12/10 06:51:20;;;;;;;127.63;39.13;;;7.60;61.10;;;;;;5009597;28;20042;-65
2020/12/10 06:54:00;;;;;;;111.30;35.78;;;7.50;61.10;;;;;;5014196;28;20048;-65
2020/12/10 06:56:30;;;;;;;113.22;35.83;;;7.60;61.10;;;;;;5016287;28;20058;-65
2020/12/10 06:59:01;;;;;;;109.78;36.45;;;7.60;61.10;;;;;;5009018;28;20065;-65
2020/12/10 07:01:36;;;;;;;116.38;37.53;;;7.60;61.10;;;;;;5017417;28;20033;-65
2020/12/10 07:05:03;;;;;;;117.15;36.03;;;7.60;61.20;;;;;;5024186;28;20034;-65
2020/12/10 07:07:21;;;;;;;105.82;34.67;;;7.60;61.20;;;;;;5006140;28;20094;-65
2020/12/10 07:09:51;;;;;;;116.93;37.92;;;7.60;61.10;;;;;;5012380;28;20840;-65
2020/12/10 07:12:21;;;;;;;115.10;36.40;;;7.60;61.20;;;;;;5007495;28;20052;-65
2020/12/10 07:14:48;;;;;;;113.18;37.55;;;7.60;61.20;;;;;;5015302;28;20498;-65
2020/12/10 07:17:13;;;;;;;116.35;37.25;;;7.70;61.20;;;;;;5007506;28;20418;-65
2020/12/10 07:19:39;;;;;;;120.93;37.05;;;7.70;61.20;;;;;;5012737;28;20030;-65
2020/12/10 07:22:05;;;;;;;119.35;37.22;;;7.70;61.20;;;;;;5014413;28;20029;-65
2020/12/10 07:24:30;;;;;;;105.05;36.95;;;7.70;61.10;;;;;;5011263;28;20137;-65
2020/12/10 07:26:56;;;;;;;122.28;40.03;;;7.80;61.10;;;;;;5017704;28;20038;-65
2020/12/10 07:29:22;;;;;;;115.03;37.63;;;7.80;61.20;;;;;;5010318;28;20033;-65
2020/12/10 07:31:47;;;;;;;117.18;37.38;;;7.80;61.20;;;;;;5013483;28;20421;-65
2020/12/10 07:34:13;;;;;;;126.00;38.33;;;7.80;61.20;;;;;;5012895;28;20041;-65
2020/12/10 07:36:50;;;;;;;114.53;37.88;;;7.80;61.20;;;;;;5032446;28;20041;-65
2020/12/10 07:39:29;;;;;;;108.97;37.03;;;7.80;61.30;;;;;;5019492;28;20126;-65
2020/12/10 07:41:55;;;;;;;116.70;38.03;;;7.80;61.20;;;;;;5013117;28;20038;-65
2020/12/10 07:44:26;;;;;;;107.65;36.28;;;7.80;61.20;;;;;;5014560;28;20145;-65
2020/12/10 07:46:51;;;;;;;112.72;38.03;;;7.80;61.30;;;;;;5015452;28;20038;-65
2020/12/10 07:49:31;;;;;;;110.38;37.42;;;7.90;61.40;;;;;;5021206;28;20087;-65
2020/12/10 07:52:15;;;;;;;103.40;37.92;;;7.90;61.40;;;;;;5010032;28;20042;-65
2020/12/10 07:54:44;;;;;;;106.35;35.75;;;7.90;61.40;;;;;;5025316;28;20057;-65
2020/12/10 07:57:27;;;;;;;109.82;36.72;;;7.90;62.00;;;;;;5034724;28;20033;-65
2020/12/10 08:00:04;;;;;;;118.32;38.58;;;7.90;61.40;;;;;;5025483;28;20092;-65
2020/12/10 08:02:56;;;;;;;120.47;38.33;;;7.90;61.40;;;;;;5019900;28;20509;-65
2020/12/10 08:05:21;;;;;;;113.63;36.92;;;7.90;61.40;;;;;;5004643;28;20475;-65
2020/12/10 08:07:52;;;;;;;111.88;36.75;;;7.90;61.50;;;;;;5006040;28;20048;-65
2020/12/10 08:10:21;;;;;;;114.55;37.47;;;7.90;61.50;;;;;;5015162;28;20033;-65
2020/12/10 08:13:09;;;;;;;108.88;36.92;;;7.90;61.40;;;;;;5014752;28;20045;-65
2020/12/10 08:15:35;;;;;;;111.43;38.42;;;7.90;61.50;;;;;;5007516;28;20372;-65
2020/12/10 08:18:09;;;;;;;109.45;36.67;;;7.90;61.50;;;;;;5011430;28;20048;-65
2020/12/10 08:20:43;;;;;;;116.03;36.70;;;8.00;61.50;;;;;;5013791;28;20078;-65
2020/12/10 08:23:09;;;;;;;104.72;36.33;;;8.00;61.60;;;;;;5024892;28;20524;-65
2020/12/10 08:25:34;;;;;;;111.85;36.95;;;8.10;61.60;;;;;;5011322;28;20058;-65
2020/12/10 08:28:03;;;;;;;113.82;37.20;;;8.10;61.50;;;;;;5007932;28;20120;-65
2020/12/10 08:30:28;;;;;;;113.70;37.42;;;8.10;61.50;;;;;;5014825;28;20505;-65
2020/12/10 08:32:56;;;;;;;109.30;37.05;;;8.20;61.30;;;;;;4995554;28;20037;-65
2020/12/10 08:35:22;;;;;;;120.65;39.22;;;8.20;61.40;;;;;;5004101;28;20046;-65
2020/12/10 08:37:48;;;;;;;107.22;37.80;;;8.20;61.30;;;;;;5024841;28;20037;-65
2020/12/10 08:40:24;;;;;;;110.25;36.05;;;8.20;61.30;;;;;;5008865;28;20069;-65
2020/12/10 08:42:50;;;;;;;111.32;36.88;;;8.20;61.30;;;;;;5012982;28;20414;-65
2020/12/10 08:45:34;;;;;;;115.47;37.67;;;8.20;61.20;;;;;;5012620;28;20133;-65
2020/12/10 08:48:04;;;;;;;111.03;35.13;;;8.30;61.30;;;;;;5019244;28;20045;-65
2020/12/10 08:50:30;;;;;;;102.40;36.30;;;8.30;61.20;;;;;;5007111;28;20045;-65
2020/12/10 08:52:58;;;;;;;117.70;37.55;;;8.40;61.20;;;;;;5006209;28;20034;-65
2020/12/10 08:55:25;;;;;;;115.40;36.45;;;8.40;61.10;;;;;;5013345;28;20060;-65
2020/12/10 08:57:50;;;;;;;106.32;37.13;;;8.40;61.00;;;;;;5022914;28;20033;-65
2020/12/10 09:00:16;;;;;;;118.72;36.72;;;8.40;61.10;;;;;;5012773;28;20041;-65
2020/12/10 09:02:42;;;;;;;115.75;38.60;;;8.40;61.00;;;;;;5023829;28;20054;-65
2020/12/10 09:05:08;;;;;;;116.18;37.95;;;8.40;61.00;;;;;;5017577;28;20037;-65
2020/12/10 09:07:33;;;;;;;113.45;37.95;;;8.40;61.00;;;;;;5012983;28;20514;-65
2020/12/10 09:10:02;;;;;;;105.03;37.58;;;8.50;61.00;;;;;;5008200;28;20059;-65
2020/12/10 09:12:28;;;;;;;106.45;36.50;;;8.50;61.00;;;;;;5004568;28;20038;-65
2020/12/10 09:14:53;;;;;;;112.70;36.60;;;8.50;61.00;;;;;;5031791;23;20234;-65
2020/12/10 09:17:19;;;;;;;104.68;36.55;;;8.50;61.00;;;;;;4972209;28;20049;-65
2020/12/10 09:19:47;;;;;;;107.95;36.38;;;8.50;61.00;;;;;;4988628;28;20044;-65
2020/12/10 09:22:12;;;;;;;123.22;38.20;;;8.60;61.10;;;;;;4991958;28;20049;-65
2020/12/10 09:24:38;;;;;;;117.65;35.45;;;8.60;61.00;;;;;;4994104;28;20049;-65
2020/12/10 09:27:07;;;;;;;112.00;37.15;;;8.60;61.70;;;;;;4990638;28;20796;-65
2020/12/10 09:29:34;;;;;;;118.70;38.00;;;8.60;61.00;;;;;;5017988;28;20124;-65
2020/12/10 09:32:00;;;;;;;126.32;38.10;;;8.60;61.00;;;;;;5022480;28;20166;-65
2020/12/10 09:34:26;;;;;;;129.07;39.92;;;8.60;61.00;;;;;;5020331;28;20080;-65
2020/12/10 09:36:52;;;;;;;123.93;37.65;;;8.60;61.10;;;;;;5026686;28;20045;-65
2020/12/10 09:39:17;;;;;;;115.68;37.42;;;8.60;61.10;;;;;;5032085;28;20065;-65
2020/12/10 09:41:43;;;;;;;117.70;38.17;;;8.60;61.20;;;;;;5029189;28;20867;-65
2020/12/10 09:44:10;;;;;;;122.35;38.67;;;8.60;61.10;;;;;;5008685;28;20153;-65
2020/12/10 09:46:36;;;;;;;131.88;39.55;;;8.60;61.20;;;;;;5033276;28;20468;-65
2020/12/10 09:49:02;;;;;;;126.30;38.92;;;8.60;61.20;;;;;;5037572;28;20101;-65
2020/12/10 09:51:34;;;;;;;137.82;39.28;;;8.60;61.30;;;;;;5010017;28;20051;-65
2020/12/10 09:54:06;;;;;;;141.60;39.55;;;8.70;61.30;;;;;;5018087;28;20746;-65
2020/12/10 09:56:45;;;;;;;141.57;40.25;;;8.70;61.30;;;;;;5026172;28;20183;-63
2020/12/10 09:59:14;;;;;;;129.43;37.95;;;8.70;61.20;;;;;;5024906;28;20052;-64
2020/12/10 10:01:45;;;;;;;145.35;38.70;;;8.70;61.20;;;;;;5026908;28;20042;-64
2020/12/10 10:04:10;;;;;;;131.32;39.45;;;8.70;61.20;;;;;;5023321;28;20055;-64
2020/12/10 10:06:36;;;;;;;141.90;41.72;;;8.70;61.20;;;;;;5023837;28;20041;-64
2020/12/10 10:09:04;;;;;;;153.85;42.20;;;8.70;61.30;;;;;;5019467;28;20045;-64
2020/12/10 10:11:30;;;;;;;149.60;41.92;;;8.80;61.40;;;;;;5027143;28;20041;-64
2020/12/10 10:13:56;;;;;;;160.00;43.72;;;8.80;61.40;;;;;;5017966;28;20486;-63
2020/12/10 10:16:27;;;;;;;154.85;41.10;;;8.80;61.40;;;;;;5028921;28;20132;-66
2020/12/10 10:18:53;;;;;;;155.65;42.90;;;8.80;61.40;;;;;;5029234;28;20041;-64
2020/12/10 10:21:19;;;;;;;167.75;42.80;;;8.80;61.40;;;;;;5032181;28;20045;-64
2020/12/10 10:23:45;;;;;;;163.40;44.35;;;8.80;61.50;;;;;;5025543;28;20072;-64
2020/12/10 10:26:10;;;;;;;160.65;39.65;;;8.80;61.60;;;;;;5032333;28;20052;-64
2020/12/10 10:28:36;;;;;;;164.32;42.00;;;8.90;61.70;;;;;;5023570;28;20044;-64
2020/12/10 10:31:02;;;;;;;163.10;41.45;;;8.90;61.70;;;;;;5033561;28;20405;-64
2020/12/10 10:33:27;;;;;;;167.40;42.03;;;8.90;61.60;;;;;;5031651;28;20441;-64
2020/12/10 10:35:53;;;;;;;164.18;43.50;;;8.90;61.60;;;;;;5029870;28;20500;-64
2020/12/10 10:38:20;;;;;;;164.73;41.67;;;8.90;61.70;;;;;;5031887;28;20036;-64
2020/12/10 10:40:46;;;;;;;157.63;44.13;;;9.00;61.70;;;;;;5033252;28;20076;-64
2020/12/10 10:43:11;;;;;;;170.10;41.00;;;9.00;61.70;;;;;;5030163;28;20127;-64
2020/12/10 10:45:37;;;;;;;148.90;37.67;;;9.00;61.60;;;;;;5025482;28;20056;-64
2020/12/10 10:48:03;;;;;;;156.05;40.35;;;8.90;61.60;;;;;;5024163;28;20051;-64
2020/12/10 10:50:28;;;;;;;151.43;39.28;;;8.90;61.70;;;;;;5032144;28;20037;-64
2020/12/10 10:52:54;;;;;;;165.40;39.45;;;8.90;61.90;;;;;;5035966;28;20033;-64
2020/12/10 10:55:19;;;;;;;143.98;39.40;;;9.00;62.00;;;;;;5029878;28;20040;-64
2020/12/10 10:57:45;;;;;;;149.15;38.88;;;9.00;61.90;;;;;;5029591;28;20045;-64
2020/12/10 11:00:11;;;;;;;144.70;37.38;;;9.00;61.80;;;;;;5027913;28;21056;-64
2020/12/10 11:02:36;;;;;;;141.98;36.38;;;9.00;61.80;;;;;;5027081;28;20544;-64
2020/12/10 11:05:02;;;;;;;149.60;38.22;;;9.10;61.90;;;;;;5028457;28;20041;-64
2020/12/10 11:07:28;;;;;;;148.38;38.20;;;9.10;62.00;;;;;;5022419;28;20037;-64
2020/12/10 11:09:54;;;;;;;131.90;36.75;;;9.10;61.90;;;;;;5028274;28;20064;-64
2020/12/10 11:12:19;;;;;;;127.55;36.10;;;9.10;62.00;;;;;;5033501;28;20066;-64
2020/12/10 11:14:46;;;;;;;131.20;35.03;;;9.10;62.00;;;;;;5028505;28;20072;-64
2020/12/10 11:17:12;;;;;;;118.55;34.05;;;9.10;62.00;;;;;;5004462;28;20095;-64
2020/12/10 11:19:38;;;;;;;128.15;35.63;;;9.10;61.90;;;;;;5021597;28;20072;-64
2020/12/10 11:22:03;;;;;;;113.22;35.70;;;9.10;62.10;;;;;;5021890;28;20128;-64
2020/12/10 11:24:29;;;;;;;119.60;33.10;;;9.10;62.10;;;;;;5026735;28;20060;-64
2020/12/10 11:26:55;;;;;;;119.72;34.05;;;9.20;62.20;;;;;;5031180;28;20065;-64
2020/12/10 11:29:21;;;;;;;126.82;35.45;;;9.20;62.80;;;;;;5030567;28;20544;-64
2020/12/10 11:31:47;;;;;;;132.70;36.70;;;9.20;62.10;;;;;;5031291;28;20132;-64
2020/12/10 11:34:12;;;;;;;110.57;35.30;;;9.20;62.10;;;;;;5032329;28;20044;-64
2020/12/10 11:36:38;;;;;;;109.97;34.95;;;9.20;62.00;;;;;;5036379;28;20041;-64
2020/12/10 11:39:04;;;;;;;113.88;33.22;;;9.20;62.00;;;;;;5024274;28;20051;-64
2020/12/10 11:41:30;;;;;;;113.78;33.78;;;9.20;62.00;;;;;;5029764;28;20406;-64
2020/12/10 11:43:56;;;;;;;119.45;34.38;;;9.20;62.00;;;;;;5030382;28;20049;-64
2020/12/10 11:46:21;;;;;;;118.95;34.17;;;9.20;62.10;;;;;;5013017;28;20037;-63
2020/12/10 11:48:47;;;;;;;116.20;35.40;;;9.20;62.20;;;;;;5027579;28;20060;-63
2020/12/10 11:51:16;;;;;;;118.05;33.72;;;9.20;62.20;;;;;;5026918;28;20041;-63
2020/12/10 11:53:43;;;;;;;120.57;34.55;;;9.20;62.20;;;;;;5030105;28;20053;-63
2020/12/10 11:56:09;;;;;;;116.00;33.55;;;9.20;62.30;;;;;;5028715;28;20616;-63
2020/12/10 11:58:34;;;;;;;124.88;33.00;;;9.30;62.40;;;;;;5015017;28;20044;-63
2020/12/10 12:01:00;;;;;;;119.47;34.03;;;9.30;61.80;;;;;;5036195;28;20413;-63
2020/12/10 12:03:26;;;;;;;107.93;32.40;;;9.30;62.20;;;;;;5028640;28;20052;-63
2020/12/10 12:05:52;;;;;;;114.72;33.00;;;9.30;62.20;;;;;;5031555;28;20047;-63
2020/12/10 12:08:18;;;;;;;121.65;34.30;;;9.30;62.00;;;;;;5024129;28;20432;-63
2020/12/10 12:10:44;;;;;;;116.53;33.38;;;9.40;62.80;;;;;;5038213;28;20068;-63
2020/12/10 12:13:09;;;;;;;104.05;31.77;;;9.40;62.10;;;;;;5033529;28;20513;-63
2020/12/10 12:15:35;;;;;;;99.72;30.90;;;9.40;62.20;;;;;;5032496;28;20073;-63
2020/12/10 12:18:00;;;;;;;102.93;31.55;;;9.40;62.20;;;;;;5029445;28;20092;-63
2020/12/10 12:20:26;;;;;;;113.43;31.50;;;9.40;62.30;;;;;;5017589;28;20049;-64
2020/12/10 12:22:52;;;;;;;100.45;32.55;;;9.40;62.30;;;;;;5032912;28;20033;-64
2020/12/10 12:25:18;;;;;;;114.32;31.20;;;9.50;62.40;;;;;;5014690;28;20501;-64
2020/12/10 12:27:44;;;;;;;102.53;32.20;;;9.50;62.40;;;;;;5031288;28;20043;-64
2020/12/10 12:30:09;;;;;;;118.43;31.35;;;9.50;62.40;;;;;;5028345;28;20025;-64